sensor_id;sensor_type;location;lat;lon;timestamp;temperature;humidity
48994;DHT22;34804;49.214;12.276;2022-10-16T00:01:32;14.50;95.80
48994;DHT22;34804;49.214;12.276;2022-10-16T00:04:00;14.50;95.80
48994;DHT22;34804;49.214;12.276;2022-10-16T00:06:28;14.50;95.80
48994;DHT22;34804;49.214;12.276;2022-10-16T00:08:56;14.40;95.80
48994;DHT22;34804;49.214;12.276;2022-10-16T00:11:28;14.40;95.80
48994;DHT22;34804;49.214;12.276;2022-10-16T00:13:58;14.40;95.70
48994;DHT22;34804;49.214;12.276;2022-10-16T00:16:26;14.40;95.80
48994;DHT22;34804;49.214;12.276;2022-10-16T00:18:53;14.30;95.80
48994;DHT22;34804;49.214;12.276;2022-10-16T00:21:22;14.40;95.90
48994;DHT22;34804;49.214;12.276;2022-10-16T00:23:51;14.30;96.00
48994;DHT22;34804;49.214;12.276;2022-10-16T00:26:19;14.30;95.90
48994;DHT22;34804;49.214;12.276;2022-10-16T00:28:47;14.40;96.00
48994;DHT22;34804;49.214;12.276;2022-10-16T00:31:15;14.40;95.90
48994;DHT22;34804;49.214;12.276;2022-10-16T00:33:42;14.40;95.90
48994;DHT22;34804;49.214;12.276;2022-10-16T00:36:11;14.40;95.80
48994;DHT22;34804;49.214;12.276;2022-10-16T00:38:39;14.40;95.80
48994;DHT22;34804;49.214;12.276;2022-10-16T00:41:07;14.40;95.70
48994;DHT22;34804;49.214;12.276;2022-10-16T00:43:38;14.40;95.60
48994;DHT22;34804;49.214;12.276;2022-10-16T00:46:37;14.40;95.60
48994;DHT22;34804;49.214;12.276;2022-10-16T00:49:19;14.40;95.60
48994;DHT22;34804;49.214;12.276;2022-10-16T00:51:49;14.40;95.60
48994;DHT22;34804;49.214;12.276;2022-10-16T00:54:21;14.40;95.60
48994;DHT22;34804;49.214;12.276;2022-10-16T00:56:50;14.40;95.60
48994;DHT22;34804;49.214;12.276;2022-10-16T00:59:28;14.40;95.60
48994;DHT22;34804;49.214;12.276;2022-10-16T01:01:55;14.40;95.50
48994;DHT22;34804;49.214;12.276;2022-10-16T01:04:23;14.40;95.60
48994;DHT22;34804;49.214;12.276;2022-10-16T01:07:20;14.40;95.60
48994;DHT22;34804;49.214;12.276;2022-10-16T01:13:35;14.40;95.60
48994;DHT22;34804;49.214;12.276;2022-10-16T01:16:13;14.40;95.60
48994;DHT22;34804;49.214;12.276;2022-10-16T01:19:02;14.40;95.50
48994;DHT22;34804;49.214;12.276;2022-10-16T01:21:36;14.40;95.60
48994;DHT22;34804;49.214;12.276;2022-10-16T01:29:31;14.40;95.60
48994;DHT22;34804;49.214;12.276;2022-10-16T01:32:29;14.40;95.50
48994;DHT22;34804;49.214;12.276;2022-10-16T01:37:38;14.30;95.60
48994;DHT22;34804;49.214;12.276;2022-10-16T01:40:11;14.30;95.60
48994;DHT22;34804;49.214;12.276;2022-10-16T01:42:43;14.30;95.60
48994;DHT22;34804;49.214;12.276;2022-10-16T01:45:14;14.30;95.60
48994;DHT22;34804;49.214;12.276;2022-10-16T01:47:45;14.30;95.50
48994;DHT22;34804;49.214;12.276;2022-10-16T01:50:15;14.30;95.40
48994;DHT22;34804;49.214;12.276;2022-10-16T01:52:45;14.40;95.30
48994;DHT22;34804;49.214;12.276;2022-10-16T01:55:16;14.40;95.30
48994;DHT22;34804;49.214;12.276;2022-10-16T01:57:46;14.40;95.30
48994;DHT22;34804;49.214;12.276;2022-10-16T02:00:17;14.40;95.20
48994;DHT22;34804;49.214;12.276;2022-10-16T02:02:48;14.40;95.10
48994;DHT22;34804;49.214;12.276;2022-10-16T02:07:47;14.40;95.10
48994;DHT22;34804;49.214;12.276;2022-10-16T02:10:15;14.40;95.10
48994;DHT22;34804;49.214;12.276;2022-10-16T02:12:45;14.30;95.20
48994;DHT22;34804;49.214;12.276;2022-10-16T02:15:15;14.40;95.10
48994;DHT22;34804;49.214;12.276;2022-10-16T02:17:43;14.30;95.20
48994;DHT22;34804;49.214;12.276;2022-10-16T02:20:10;14.40;95.30
48994;DHT22;34804;49.214;12.276;2022-10-16T02:22:43;14.40;95.30
48994;DHT22;34804;49.214;12.276;2022-10-16T02:25:19;14.30;95.20
48994;DHT22;34804;49.214;12.276;2022-10-16T02:27:55;14.30;95.20
48994;DHT22;34804;49.214;12.276;2022-10-16T02:30:28;14.30;95.20
48994;DHT22;34804;49.214;12.276;2022-10-16T02:32:58;14.30;95.20
48994;DHT22;34804;49.214;12.276;2022-10-16T02:35:26;14.30;95.20
48994;DHT22;34804;49.214;12.276;2022-10-16T02:37:54;14.30;95.20
48994;DHT22;34804;49.214;12.276;2022-10-16T02:40:22;14.30;95.20
48994;DHT22;34804;49.214;12.276;2022-10-16T02:42:52;14.30;95.20
48994;DHT22;34804;49.214;12.276;2022-10-16T02:45:20;14.30;95.30
48994;DHT22;34804;49.214;12.276;2022-10-16T02:47:47;14.20;95.30
48994;DHT22;34804;49.214;12.276;2022-10-16T02:50:15;14.20;95.40
48994;DHT22;34804;49.214;12.276;2022-10-16T02:52:42;14.20;95.40
48994;DHT22;34804;49.214;12.276;2022-10-16T02:55:08;14.20;95.50
48994;DHT22;34804;49.214;12.276;2022-10-16T02:57:35;14.20;95.60
48994;DHT22;34804;49.214;12.276;2022-10-16T03:00:05;14.20;95.60
48994;DHT22;34804;49.214;12.276;2022-10-16T03:02:32;14.20;95.50
48994;DHT22;34804;49.214;12.276;2022-10-16T03:04:58;14.30;95.50
48994;DHT22;34804;49.214;12.276;2022-10-16T03:07:25;14.20;95.50
48994;DHT22;34804;49.214;12.276;2022-10-16T03:09:53;14.30;95.60
48994;DHT22;34804;49.214;12.276;2022-10-16T03:12:21;14.30;95.60
48994;DHT22;34804;49.214;12.276;2022-10-16T03:14:48;14.30;95.50
48994;DHT22;34804;49.214;12.276;2022-10-16T03:17:15;14.30;95.50
48994;DHT22;34804;49.214;12.276;2022-10-16T03:19:44;14.30;95.50
48994;DHT22;34804;49.214;12.276;2022-10-16T03:22:11;14.30;95.50
48994;DHT22;34804;49.214;12.276;2022-10-16T03:24:38;14.30;95.40
48994;DHT22;34804;49.214;12.276;2022-10-16T03:27:05;14.30;95.50
48994;DHT22;34804;49.214;12.276;2022-10-16T03:29:32;14.30;95.50
48994;DHT22;34804;49.214;12.276;2022-10-16T03:31:59;14.30;95.50
48994;DHT22;34804;49.214;12.276;2022-10-16T03:34:27;14.30;95.50
48994;DHT22;34804;49.214;12.276;2022-10-16T03:36:54;14.40;95.40
48994;DHT22;34804;49.214;12.276;2022-10-16T03:39:21;14.30;95.30
48994;DHT22;34804;49.214;12.276;2022-10-16T03:41:48;14.40;95.40
48994;DHT22;34804;49.214;12.276;2022-10-16T03:44:14;14.30;95.40
48994;DHT22;34804;49.214;12.276;2022-10-16T03:46:41;14.30;95.40
48994;DHT22;34804;49.214;12.276;2022-10-16T03:49:08;14.30;95.50
48994;DHT22;34804;49.214;12.276;2022-10-16T03:51:35;14.30;95.60
48994;DHT22;34804;49.214;12.276;2022-10-16T03:54:02;14.30;95.60
48994;DHT22;34804;49.214;12.276;2022-10-16T03:56:29;14.30;95.60
48994;DHT22;34804;49.214;12.276;2022-10-16T03:58:56;14.30;95.60
48994;DHT22;34804;49.214;12.276;2022-10-16T04:01:23;14.30;95.50
48994;DHT22;34804;49.214;12.276;2022-10-16T04:03:50;14.40;95.20
48994;DHT22;34804;49.214;12.276;2022-10-16T04:06:16;14.40;95.20
48994;DHT22;34804;49.214;12.276;2022-10-16T04:08:43;14.40;95.00
48994;DHT22;34804;49.214;12.276;2022-10-16T04:11:10;14.40;95.00
48994;DHT22;34804;49.214;12.276;2022-10-16T04:13:37;14.40;94.80
48994;DHT22;34804;49.214;12.276;2022-10-16T04:16:04;14.30;94.80
48994;DHT22;34804;49.214;12.276;2022-10-16T04:18:31;14.30;94.70
48994;DHT22;34804;49.214;12.276;2022-10-16T04:21:03;14.40;94.70
48994;DHT22;34804;49.214;12.276;2022-10-16T04:23:30;14.40;94.60
48994;DHT22;34804;49.214;12.276;2022-10-16T04:25:57;14.40;94.70
48994;DHT22;34804;49.214;12.276;2022-10-16T04:28:24;14.30;94.60
48994;DHT22;34804;49.214;12.276;2022-10-16T04:30:51;14.30;94.60
48994;DHT22;34804;49.214;12.276;2022-10-16T04:33:17;14.30;94.50
48994;DHT22;34804;49.214;12.276;2022-10-16T04:35:44;14.30;94.50
48994;DHT22;34804;49.214;12.276;2022-10-16T04:38:11;14.30;94.50
48994;DHT22;34804;49.214;12.276;2022-10-16T04:40:38;14.10;94.40
48994;DHT22;34804;49.214;12.276;2022-10-16T04:43:05;14.00;94.50
48994;DHT22;34804;49.214;12.276;2022-10-16T04:45:32;14.00;94.70
48994;DHT22;34804;49.214;12.276;2022-10-16T04:47:59;13.80;94.60
48994;DHT22;34804;49.214;12.276;2022-10-16T04:50:26;13.80;94.80
48994;DHT22;34804;49.214;12.276;2022-10-16T04:52:53;13.80;95.10
48994;DHT22;34804;49.214;12.276;2022-10-16T04:55:20;13.70;95.20
48994;DHT22;34804;49.214;12.276;2022-10-16T04:57:46;13.70;95.30
48994;DHT22;34804;49.214;12.276;2022-10-16T05:00:13;13.70;95.40
48994;DHT22;34804;49.214;12.276;2022-10-16T05:02:40;13.70;95.50
48994;DHT22;34804;49.214;12.276;2022-10-16T05:05:07;13.70;95.20
48994;DHT22;34804;49.214;12.276;2022-10-16T05:07:34;13.70;95.20
48994;DHT22;34804;49.214;12.276;2022-10-16T05:10:01;13.70;95.40
48994;DHT22;34804;49.214;12.276;2022-10-16T05:12:28;13.70;95.50
48994;DHT22;34804;49.214;12.276;2022-10-16T05:14:55;13.70;95.50
48994;DHT22;34804;49.214;12.276;2022-10-16T05:17:25;13.80;95.60
48994;DHT22;34804;49.214;12.276;2022-10-16T05:19:53;13.80;95.60
48994;DHT22;34804;49.214;12.276;2022-10-16T05:22:20;13.80;95.70
48994;DHT22;34804;49.214;12.276;2022-10-16T05:24:47;13.80;95.70
48994;DHT22;34804;49.214;12.276;2022-10-16T05:27:14;13.80;95.70
48994;DHT22;34804;49.214;12.276;2022-10-16T05:29:46;13.80;95.70
48994;DHT22;34804;49.214;12.276;2022-10-16T05:32:17;13.90;95.70
48994;DHT22;34804;49.214;12.276;2022-10-16T05:34:44;13.90;95.70
48994;DHT22;34804;49.214;12.276;2022-10-16T05:37:11;13.90;95.70
48994;DHT22;34804;49.214;12.276;2022-10-16T05:39:38;14.00;95.60
48994;DHT22;34804;49.214;12.276;2022-10-16T05:42:06;14.00;95.40
48994;DHT22;34804;49.214;12.276;2022-10-16T05:44:32;14.00;95.30
48994;DHT22;34804;49.214;12.276;2022-10-16T05:47:04;14.00;95.20
48994;DHT22;34804;49.214;12.276;2022-10-16T05:49:31;14.10;94.90
48994;DHT22;34804;49.214;12.276;2022-10-16T05:51:58;14.10;94.70
48994;DHT22;34804;49.214;12.276;2022-10-16T05:54:24;14.20;94.50
48994;DHT22;34804;49.214;12.276;2022-10-16T05:56:51;14.20;94.40
48994;DHT22;34804;49.214;12.276;2022-10-16T05:59:18;14.20;94.30
48994;DHT22;34804;49.214;12.276;2022-10-16T06:01:45;14.30;94.30
48994;DHT22;34804;49.214;12.276;2022-10-16T06:04:12;14.30;94.20
48994;DHT22;34804;49.214;12.276;2022-10-16T06:06:38;14.30;94.20
48994;DHT22;34804;49.214;12.276;2022-10-16T06:09:05;14.30;94.10
48994;DHT22;34804;49.214;12.276;2022-10-16T06:11:33;14.40;94.20
48994;DHT22;34804;49.214;12.276;2022-10-16T06:14:01;14.30;94.30
48994;DHT22;34804;49.214;12.276;2022-10-16T06:16:34;14.20;94.60
48994;DHT22;34804;49.214;12.276;2022-10-16T06:19:01;14.20;94.80
48994;DHT22;34804;49.214;12.276;2022-10-16T06:21:28;14.20;94.90
48994;DHT22;34804;49.214;12.276;2022-10-16T06:23:56;14.10;95.00
48994;DHT22;34804;49.214;12.276;2022-10-16T06:26:26;14.10;95.10
48994;DHT22;34804;49.214;12.276;2022-10-16T06:28:58;14.10;95.10
48994;DHT22;34804;49.214;12.276;2022-10-16T06:31:26;14.10;95.10
48994;DHT22;34804;49.214;12.276;2022-10-16T06:33:56;14.10;95.10
48994;DHT22;34804;49.214;12.276;2022-10-16T06:36:24;14.00;95.10
48994;DHT22;34804;49.214;12.276;2022-10-16T06:38:51;14.00;95.20
48994;DHT22;34804;49.214;12.276;2022-10-16T06:41:20;13.90;95.30
48994;DHT22;34804;49.214;12.276;2022-10-16T06:43:47;14.00;95.40
48994;DHT22;34804;49.214;12.276;2022-10-16T06:46:16;14.10;95.50
48994;DHT22;34804;49.214;12.276;2022-10-16T06:48:44;14.10;95.50
48994;DHT22;34804;49.214;12.276;2022-10-16T06:51:16;14.10;95.40
48994;DHT22;34804;49.214;12.276;2022-10-16T06:53:48;14.20;95.40
48994;DHT22;34804;49.214;12.276;2022-10-16T06:56:32;14.30;95.30
48994;DHT22;34804;49.214;12.276;2022-10-16T06:59:00;14.30;95.40
48994;DHT22;34804;49.214;12.276;2022-10-16T07:01:27;14.40;95.40
48994;DHT22;34804;49.214;12.276;2022-10-16T07:03:54;14.40;95.40
48994;DHT22;34804;49.214;12.276;2022-10-16T07:06:23;14.60;95.50
48994;DHT22;34804;49.214;12.276;2022-10-16T07:08:50;14.70;95.30
48994;DHT22;34804;49.214;12.276;2022-10-16T07:11:19;14.70;95.00
48994;DHT22;34804;49.214;12.276;2022-10-16T07:13:47;14.80;94.90
48994;DHT22;34804;49.214;12.276;2022-10-16T07:16:26;14.80;94.50
48994;DHT22;34804;49.214;12.276;2022-10-16T07:18:57;14.80;94.60
48994;DHT22;34804;49.214;12.276;2022-10-16T07:21:28;15.00;94.40
48994;DHT22;34804;49.214;12.276;2022-10-16T07:23:57;15.20;94.30
48994;DHT22;34804;49.214;12.276;2022-10-16T07:26:26;15.30;93.30
48994;DHT22;34804;49.214;12.276;2022-10-16T07:28:53;15.40;92.00
48994;DHT22;34804;49.214;12.276;2022-10-16T07:31:21;15.50;91.90
48994;DHT22;34804;49.214;12.276;2022-10-16T07:33:48;15.60;92.00
48994;DHT22;34804;49.214;12.276;2022-10-16T07:36:17;15.70;91.00
48994;DHT22;34804;49.214;12.276;2022-10-16T07:38:44;15.70;90.80
48994;DHT22;34804;49.214;12.276;2022-10-16T07:41:16;15.80;90.90
48994;DHT22;34804;49.214;12.276;2022-10-16T07:43:51;15.80;90.90
48994;DHT22;34804;49.214;12.276;2022-10-16T07:46:19;15.80;90.10
48994;DHT22;34804;49.214;12.276;2022-10-16T07:48:47;15.90;90.50
48994;DHT22;34804;49.214;12.276;2022-10-16T07:51:17;15.90;89.70
48994;DHT22;34804;49.214;12.276;2022-10-16T07:53:44;16.10;90.00
48994;DHT22;34804;49.214;12.276;2022-10-16T07:56:11;16.30;89.10
48994;DHT22;34804;49.214;12.276;2022-10-16T07:58:38;16.40;89.00
48994;DHT22;34804;49.214;12.276;2022-10-16T08:01:07;16.60;88.50
48994;DHT22;34804;49.214;12.276;2022-10-16T08:03:35;16.80;89.20
48994;DHT22;34804;49.214;12.276;2022-10-16T08:06:03;16.70;87.20
48994;DHT22;34804;49.214;12.276;2022-10-16T08:08:30;16.80;87.90
48994;DHT22;34804;49.214;12.276;2022-10-16T08:10:57;16.80;88.60
48994;DHT22;34804;49.214;12.276;2022-10-16T08:13:23;16.90;87.90
48994;DHT22;34804;49.214;12.276;2022-10-16T08:15:50;17.00;88.10
48994;DHT22;34804;49.214;12.276;2022-10-16T08:18:17;17.30;88.70
48994;DHT22;34804;49.214;12.276;2022-10-16T08:20:44;17.30;86.40
48994;DHT22;34804;49.214;12.276;2022-10-16T08:23:12;17.40;86.00
48994;DHT22;34804;49.214;12.276;2022-10-16T08:25:40;17.40;86.90
48994;DHT22;34804;49.214;12.276;2022-10-16T08:28:09;17.40;86.30
48994;DHT22;34804;49.214;12.276;2022-10-16T08:30:37;17.40;85.40
48994;DHT22;34804;49.214;12.276;2022-10-16T08:33:04;17.40;85.50
48994;DHT22;34804;49.214;12.276;2022-10-16T08:35:32;17.50;85.20
48994;DHT22;34804;49.214;12.276;2022-10-16T08:37:59;17.50;85.60
48994;DHT22;34804;49.214;12.276;2022-10-16T08:40:28;17.60;84.90
48994;DHT22;34804;49.214;12.276;2022-10-16T08:48:44;17.40;84.10
48994;DHT22;34804;49.214;12.276;2022-10-16T08:51:24;17.30;84.70
48994;DHT22;34804;49.214;12.276;2022-10-16T08:54:31;17.30;84.40
48994;DHT22;34804;49.214;12.276;2022-10-16T08:57:20;17.20;85.10
48994;DHT22;34804;49.214;12.276;2022-10-16T08:59:52;17.20;84.80
48994;DHT22;34804;49.214;12.276;2022-10-16T09:16:36;18.60;82.70
48994;DHT22;34804;49.214;12.276;2022-10-16T09:19:17;18.60;82.20
48994;DHT22;34804;49.214;12.276;2022-10-16T09:21:46;18.70;81.40
48994;DHT22;34804;49.214;12.276;2022-10-16T09:24:20;18.70;80.90
48994;DHT22;34804;49.214;12.276;2022-10-16T09:26:54;18.80;81.10
48994;DHT22;34804;49.214;12.276;2022-10-16T09:29:23;19.10;80.00
48994;DHT22;34804;49.214;12.276;2022-10-16T09:31:52;19.10;79.90
48994;DHT22;34804;49.214;12.276;2022-10-16T09:34:33;19.30;79.00
48994;DHT22;34804;49.214;12.276;2022-10-16T09:37:04;19.30;78.60
48994;DHT22;34804;49.214;12.276;2022-10-16T09:39:47;19.40;81.00
48994;DHT22;34804;49.214;12.276;2022-10-16T09:42:37;19.40;80.30
48994;DHT22;34804;49.214;12.276;2022-10-16T09:45:04;19.30;79.00
48994;DHT22;34804;49.214;12.276;2022-10-16T09:47:31;19.20;80.70
48994;DHT22;34804;49.214;12.276;2022-10-16T09:50:05;19.10;78.90
48994;DHT22;34804;49.214;12.276;2022-10-16T09:52:45;19.40;80.60
48994;DHT22;34804;49.214;12.276;2022-10-16T09:55:15;19.50;79.90
48994;DHT22;34804;49.214;12.276;2022-10-16T09:57:52;19.70;79.80
48994;DHT22;34804;49.214;12.276;2022-10-16T10:00:20;19.70;76.90
48994;DHT22;34804;49.214;12.276;2022-10-16T10:02:52;19.90;77.80
48994;DHT22;34804;49.214;12.276;2022-10-16T10:05:28;20.10;76.20
48994;DHT22;34804;49.214;12.276;2022-10-16T10:08:00;20.00;76.20
48994;DHT22;34804;49.214;12.276;2022-10-16T10:10:31;20.20;77.50
48994;DHT22;34804;49.214;12.276;2022-10-16T10:12:58;20.30;76.00
48994;DHT22;34804;49.214;12.276;2022-10-16T10:15:29;20.30;77.50
48994;DHT22;34804;49.214;12.276;2022-10-16T10:17:59;20.40;76.60
48994;DHT22;34804;49.214;12.276;2022-10-16T10:20:29;20.60;76.60
48994;DHT22;34804;49.214;12.276;2022-10-16T10:22:57;20.80;77.00
48994;DHT22;34804;49.214;12.276;2022-10-16T10:28:31;21.30;75.70
48994;DHT22;34804;49.214;12.276;2022-10-16T10:31:25;21.20;74.60
48994;DHT22;34804;49.214;12.276;2022-10-16T10:36:39;21.00;76.70
48994;DHT22;34804;49.214;12.276;2022-10-16T10:39:17;21.20;73.70
48994;DHT22;34804;49.214;12.276;2022-10-16T10:42:17;21.00;72.70
48994;DHT22;34804;49.214;12.276;2022-10-16T10:45:13;20.90;76.20
48994;DHT22;34804;49.214;12.276;2022-10-16T10:53:09;21.30;74.20
48994;DHT22;34804;49.214;12.276;2022-10-16T10:55:48;21.60;70.90
48994;DHT22;34804;49.214;12.276;2022-10-16T11:04:24;20.90;69.10
48994;DHT22;34804;49.214;12.276;2022-10-16T11:07:04;20.70;71.60
48994;DHT22;34804;49.214;12.276;2022-10-16T11:09:38;20.70;71.30
48994;DHT22;34804;49.214;12.276;2022-10-16T11:12:27;20.70;71.40
48994;DHT22;34804;49.214;12.276;2022-10-16T11:15:01;20.80;73.00
48994;DHT22;34804;49.214;12.276;2022-10-16T11:17:33;20.60;71.50
48994;DHT22;34804;49.214;12.276;2022-10-16T11:22:36;20.30;72.10
48994;DHT22;34804;49.214;12.276;2022-10-16T11:25:18;20.20;74.80
48994;DHT22;34804;49.214;12.276;2022-10-16T11:28:11;20.10;73.20
48994;DHT22;34804;49.214;12.276;2022-10-16T11:36:12;20.10;73.50
48994;DHT22;34804;49.214;12.276;2022-10-16T11:44:06;20.30;72.50
48994;DHT22;34804;49.214;12.276;2022-10-16T11:46:38;20.30;74.00
48994;DHT22;34804;49.214;12.276;2022-10-16T11:49:28;20.40;72.70
48994;DHT22;34804;49.214;12.276;2022-10-16T11:52:32;20.60;75.10
48994;DHT22;34804;49.214;12.276;2022-10-16T11:57:40;20.80;73.20
48994;DHT22;34804;49.214;12.276;2022-10-16T12:03:26;20.90;70.20
48994;DHT22;34804;49.214;12.276;2022-10-16T12:08:29;21.60;69.40
48994;DHT22;34804;49.214;12.276;2022-10-16T12:11:08;22.20;70.30
48994;DHT22;34804;49.214;12.276;2022-10-16T12:13:37;22.80;68.60
48994;DHT22;34804;49.214;12.276;2022-10-16T12:18:49;23.50;64.30
48994;DHT22;34804;49.214;12.276;2022-10-16T12:21:17;24.00;63.80
48994;DHT22;34804;49.214;12.276;2022-10-16T12:23:51;23.80;62.20
48994;DHT22;34804;49.214;12.276;2022-10-16T12:26:37;23.50;62.70
48994;DHT22;34804;49.214;12.276;2022-10-16T12:31:52;23.10;64.80
48994;DHT22;34804;49.214;12.276;2022-10-16T12:34:29;23.40;63.60
48994;DHT22;34804;49.214;12.276;2022-10-16T12:37:13;24.30;60.70
48994;DHT22;34804;49.214;12.276;2022-10-16T12:39:41;24.00;61.80
48994;DHT22;34804;49.214;12.276;2022-10-16T12:44:56;24.70;60.20
48994;DHT22;34804;49.214;12.276;2022-10-16T12:47:36;25.40;58.50
48994;DHT22;34804;49.214;12.276;2022-10-16T12:50:24;26.10;55.20
48994;DHT22;34804;49.214;12.276;2022-10-16T12:52:52;26.80;53.70
48994;DHT22;34804;49.214;12.276;2022-10-16T12:55:21;26.80;56.40
48994;DHT22;34804;49.214;12.276;2022-10-16T13:00:28;27.30;52.20
48994;DHT22;34804;49.214;12.276;2022-10-16T13:14:50;28.40;49.90
48994;DHT22;34804;49.214;12.276;2022-10-16T13:23:38;25.90;56.40
48994;DHT22;34804;49.214;12.276;2022-10-16T13:28:31;25.90;56.70
48994;DHT22;34804;49.214;12.276;2022-10-16T13:31:00;26.40;55.20
48994;DHT22;34804;49.214;12.276;2022-10-16T13:36:01;27.20;54.20
48994;DHT22;34804;49.214;12.276;2022-10-16T13:38:31;28.00;52.60
48994;DHT22;34804;49.214;12.276;2022-10-16T13:41:03;28.10;53.90
48994;DHT22;34804;49.214;12.276;2022-10-16T13:43:51;28.30;51.30
48994;DHT22;34804;49.214;12.276;2022-10-16T13:46:24;28.80;50.10
48994;DHT22;34804;49.214;12.276;2022-10-16T13:49:03;28.60;50.00
48994;DHT22;34804;49.214;12.276;2022-10-16T13:51:31;27.80;50.40
48994;DHT22;34804;49.214;12.276;2022-10-16T13:53:59;27.60;51.20
48994;DHT22;34804;49.214;12.276;2022-10-16T13:56:28;27.80;51.10
48994;DHT22;34804;49.214;12.276;2022-10-16T13:59:20;28.10;52.20
48994;DHT22;34804;49.214;12.276;2022-10-16T14:01:49;28.30;52.80
48994;DHT22;34804;49.214;12.276;2022-10-16T14:04:18;29.10;51.60
48994;DHT22;34804;49.214;12.276;2022-10-16T14:06:48;29.20;50.60
48994;DHT22;34804;49.214;12.276;2022-10-16T14:09:24;29.80;48.60
48994;DHT22;34804;49.214;12.276;2022-10-16T14:11:55;30.00;46.90
48994;DHT22;34804;49.214;12.276;2022-10-16T14:14:24;30.20;47.20
48994;DHT22;34804;49.214;12.276;2022-10-16T14:16:53;30.30;45.90
48994;DHT22;34804;49.214;12.276;2022-10-16T14:19:26;30.50;46.10
48994;DHT22;34804;49.214;12.276;2022-10-16T14:21:54;30.80;45.20
48994;DHT22;34804;49.214;12.276;2022-10-16T14:26:57;30.40;46.30
48994;DHT22;34804;49.214;12.276;2022-10-16T14:29:26;30.20;46.00
48994;DHT22;34804;49.214;12.276;2022-10-16T14:34:36;29.60;47.60
48994;DHT22;34804;49.214;12.276;2022-10-16T14:37:29;29.30;47.80
48994;DHT22;34804;49.214;12.276;2022-10-16T14:39:57;28.60;50.20
48994;DHT22;34804;49.214;12.276;2022-10-16T14:42:24;28.60;50.00
48994;DHT22;34804;49.214;12.276;2022-10-16T14:44:53;28.50;50.70
48994;DHT22;34804;49.214;12.276;2022-10-16T14:47:25;28.30;49.60
48994;DHT22;34804;49.214;12.276;2022-10-16T14:49:54;28.40;49.20
48994;DHT22;34804;49.214;12.276;2022-10-16T14:52:22;28.40;51.00
48994;DHT22;34804;49.214;12.276;2022-10-16T14:54:49;28.30;50.10
48994;DHT22;34804;49.214;12.276;2022-10-16T14:57:23;27.90;51.90
48994;DHT22;34804;49.214;12.276;2022-10-16T14:59:50;28.10;50.90
48994;DHT22;34804;49.214;12.276;2022-10-16T15:04:48;28.10;51.40
48994;DHT22;34804;49.214;12.276;2022-10-16T15:07:15;27.90;52.30
48994;DHT22;34804;49.214;12.276;2022-10-16T15:09:42;27.20;52.90
48994;DHT22;34804;49.214;12.276;2022-10-16T15:12:15;27.00;54.60
48994;DHT22;34804;49.214;12.276;2022-10-16T15:14:42;27.30;54.20
48994;DHT22;34804;49.214;12.276;2022-10-16T15:17:10;27.40;53.60
48994;DHT22;34804;49.214;12.276;2022-10-16T15:19:37;27.70;53.20
48994;DHT22;34804;49.214;12.276;2022-10-16T15:22:04;27.80;52.40
48994;DHT22;34804;49.214;12.276;2022-10-16T15:24:31;27.30;53.30
48994;DHT22;34804;49.214;12.276;2022-10-16T15:26:58;26.60;55.90
48994;DHT22;34804;49.214;12.276;2022-10-16T15:29:25;26.20;56.70
48994;DHT22;34804;49.214;12.276;2022-10-16T15:31:51;25.80;57.70
48994;DHT22;34804;49.214;12.276;2022-10-16T15:34:18;25.10;60.10
48994;DHT22;34804;49.214;12.276;2022-10-16T15:36:46;24.40;62.10
48994;DHT22;34804;49.214;12.276;2022-10-16T15:39:15;23.80;63.80
48994;DHT22;34804;49.214;12.276;2022-10-16T15:41:42;23.20;66.20
48994;DHT22;34804;49.214;12.276;2022-10-16T15:44:09;22.60;67.50
48994;DHT22;34804;49.214;12.276;2022-10-16T15:46:36;22.20;69.10
48994;DHT22;34804;49.214;12.276;2022-10-16T15:49:03;21.90;70.90
48994;DHT22;34804;49.214;12.276;2022-10-16T15:51:30;21.50;71.80
48994;DHT22;34804;49.214;12.276;2022-10-16T15:53:59;21.30;73.20
48994;DHT22;34804;49.214;12.276;2022-10-16T15:56:28;21.10;74.20
48994;DHT22;34804;49.214;12.276;2022-10-16T15:58:56;20.80;75.20
48994;DHT22;34804;49.214;12.276;2022-10-16T16:01:25;20.60;75.50
48994;DHT22;34804;49.214;12.276;2022-10-16T16:03:53;20.40;76.60
48994;DHT22;34804;49.214;12.276;2022-10-16T16:06:21;20.20;77.60
48994;DHT22;34804;49.214;12.276;2022-10-16T16:08:50;19.90;78.30
48994;DHT22;34804;49.214;12.276;2022-10-16T16:11:18;19.70;79.20
48994;DHT22;34804;49.214;12.276;2022-10-16T16:13:45;19.40;80.00
48994;DHT22;34804;49.214;12.276;2022-10-16T16:16:15;19.30;81.40
48994;DHT22;34804;49.214;12.276;2022-10-16T16:18:42;19.10;81.70
48994;DHT22;34804;49.214;12.276;2022-10-16T16:21:10;18.90;82.20
48994;DHT22;34804;49.214;12.276;2022-10-16T16:23:38;18.80;82.70
48994;DHT22;34804;49.214;12.276;2022-10-16T16:26:12;18.50;83.60
48994;DHT22;34804;49.214;12.276;2022-10-16T16:28:40;18.30;84.40
48994;DHT22;34804;49.214;12.276;2022-10-16T16:31:08;18.20;84.70
48994;DHT22;34804;49.214;12.276;2022-10-16T16:33:35;18.00;85.60
48994;DHT22;34804;49.214;12.276;2022-10-16T16:36:05;17.90;85.60
48994;DHT22;34804;49.214;12.276;2022-10-16T16:38:45;17.80;85.80
48994;DHT22;34804;49.214;12.276;2022-10-16T16:41:17;17.80;85.80
48994;DHT22;34804;49.214;12.276;2022-10-16T16:43:44;17.80;86.30
48994;DHT22;34804;49.214;12.276;2022-10-16T16:46:11;17.60;86.40
48994;DHT22;34804;49.214;12.276;2022-10-16T16:48:38;17.50;86.60
48994;DHT22;34804;49.214;12.276;2022-10-16T16:51:10;17.40;87.00
48994;DHT22;34804;49.214;12.276;2022-10-16T16:53:48;17.20;87.80
48994;DHT22;34804;49.214;12.276;2022-10-16T16:56:15;17.00;88.40
48994;DHT22;34804;49.214;12.276;2022-10-16T16:58:46;16.90;87.90
48994;DHT22;34804;49.214;12.276;2022-10-16T17:01:13;16.80;88.80
48994;DHT22;34804;49.214;12.276;2022-10-16T17:03:46;16.70;88.90
48994;DHT22;34804;49.214;12.276;2022-10-16T17:06:15;16.70;88.90
48994;DHT22;34804;49.214;12.276;2022-10-16T17:08:47;16.70;89.50
48994;DHT22;34804;49.214;12.276;2022-10-16T17:11:18;16.70;89.60
48994;DHT22;34804;49.214;12.276;2022-10-16T17:13:46;16.70;89.30
48994;DHT22;34804;49.214;12.276;2022-10-16T17:16:18;16.60;89.00
48994;DHT22;34804;49.214;12.276;2022-10-16T17:18:45;16.40;89.60
48994;DHT22;34804;49.214;12.276;2022-10-16T17:21:12;16.30;89.60
48994;DHT22;34804;49.214;12.276;2022-10-16T17:23:39;16.10;89.50
48994;DHT22;34804;49.214;12.276;2022-10-16T17:26:10;15.90;90.10
48994;DHT22;34804;49.214;12.276;2022-10-16T17:28:38;15.80;90.60
48994;DHT22;34804;49.214;12.276;2022-10-16T17:31:16;15.80;90.10